createdAt,value
2024-03-08T00:00:30.319Z,93660.22
2024-03-08T00:02:56.852Z,93662.41
2024-03-08T00:05:23.386Z,93652.47
2024-03-08T00:07:49.872Z,93649.34
2024-03-08T00:10:17.881Z,93652.03
2024-03-08T00:12:46.537Z,93665.63
2024-03-08T00:15:18.641Z,93647.56
2024-03-08T00:17:47.079Z,93663.56
2024-03-08T00:20:14.631Z,93660.66
2024-03-08T00:22:41.976Z,93660.50
2024-03-08T00:25:11.629Z,93661.63
2024-03-08T00:27:44.771Z,93656.00
2024-03-08T00:30:14.233Z,93665.72
2024-03-08T00:32:41.001Z,93645.03
2024-03-08T00:35:08.791Z,93662.94
2024-03-08T00:37:35.757Z,93643.22
2024-03-08T00:40:02.261Z,93635.56
2024-03-08T00:42:28.787Z,93560.81
2024-03-08T00:44:55.560Z,93649.84
2024-03-08T00:47:22.113Z,93620.41
2024-03-08T00:49:48.580Z,93617.72
2024-03-08T00:52:15.922Z,93639.72
2024-03-08T00:54:44.131Z,93615.19
2024-03-08T00:57:10.743Z,93569.91
2024-03-08T00:59:39.529Z,93629.72
2024-03-08T01:02:06.988Z,93638.56
2024-03-08T01:04:34.267Z,93604.91
2024-03-08T01:07:01.164Z,93631.16
2024-03-08T01:09:28.419Z,93634.16
2024-03-08T01:11:56.365Z,93625.09
2024-03-08T01:14:24.020Z,93608.50
2024-03-08T01:16:51.502Z,93621.13
2024-03-08T01:19:18.747Z,93616.22
2024-03-08T01:21:45.224Z,93618.75
2024-03-08T01:24:11.792Z,93611.63
2024-03-08T01:26:38.390Z,93599.53
2024-03-08T01:29:04.889Z,93601.50
2024-03-08T01:31:32.035Z,93564.97
2024-03-08T01:34:01.399Z,93602.16
2024-03-08T01:36:27.923Z,93610.56
2024-03-08T01:38:54.702Z,93598.66
2024-03-08T01:41:21.271Z,93590.44
2024-03-08T01:43:47.833Z,93607.34
2024-03-08T01:46:18.504Z,93592.59
2024-03-08T01:48:45.394Z,93589.19
2024-03-08T01:51:13.376Z,93582.22
2024-03-08T01:53:40.881Z,93570.28
2024-03-08T01:56:07.990Z,93571.38
2024-03-08T01:58:35.013Z,93565.22
2024-03-08T02:01:05.406Z,93572.50
2024-03-08T02:03:32.823Z,93563.47
2024-03-08T02:06:02.010Z,93559.72
2024-03-08T02:08:28.659Z,93559.50
2024-03-08T02:10:55.318Z,93539.75
2024-03-08T02:13:21.825Z,93553.59
2024-03-08T02:15:55.060Z,93551.81
2024-03-08T02:18:22.883Z,93549.63
2024-03-08T02:20:53.527Z,93552.63
2024-03-08T02:23:21.028Z,93540.94
2024-03-08T02:25:48.303Z,93541.50
2024-03-08T02:28:15.397Z,93516.22
2024-03-08T02:30:42.223Z,93540.25
2024-03-08T02:33:12.088Z,93539.13
2024-03-08T02:35:38.601Z,93527.84
2024-03-08T02:38:05.583Z,93514.16
2024-03-08T02:40:33.233Z,93534.13
2024-03-08T02:42:59.710Z,93534.63
2024-03-08T02:45:26.207Z,93531.63
2024-03-08T02:47:52.958Z,93509.97
2024-03-08T02:50:19.473Z,93512.97
2024-03-08T02:52:47.528Z,93507.38
2024-03-08T02:55:17.213Z,93515.81
2024-03-08T02:57:44.753Z,93520.44
2024-03-08T03:00:12.046Z,93505.91
2024-03-08T03:02:38.634Z,93513.69
2024-03-08T03:05:07.206Z,93491.41
2024-03-08T03:07:37.059Z,93513.09
2024-03-08T03:10:03.566Z,93519.78
2024-03-08T03:12:30.634Z,93502.19
2024-03-08T03:14:58.011Z,93503.94
2024-03-08T03:17:27.995Z,93509.50
2024-03-08T03:19:54.521Z,93501.69
2024-03-08T03:22:21.136Z,93507.59
2024-03-08T03:24:47.856Z,93504.53
2024-03-08T03:27:16.231Z,93509.28
2024-03-08T03:29:46.607Z,93503.56
2024-03-08T03:32:13.862Z,93492.59
2024-03-08T03:34:41.557Z,93481.28
2024-03-08T03:37:09.751Z,93489.41
2024-03-08T03:39:41.671Z,93492.25
2024-03-08T03:42:08.333Z,93492.00
2024-03-08T03:44:34.890Z,93472.25
2024-03-08T03:47:01.826Z,93481.00
2024-03-08T03:49:28.502Z,93481.84
2024-03-08T03:51:54.956Z,93477.88
2024-03-08T03:54:21.382Z,93458.13
2024-03-08T03:56:47.941Z,93476.22
2024-03-08T03:59:14.450Z,93451.78
2024-03-08T04:01:43.864Z,93450.16
2024-03-08T04:04:10.314Z,93450.16
2024-03-08T04:06:36.796Z,93471.13
2024-03-08T04:09:04.095Z,93470.47
2024-03-08T04:11:31.449Z,93428.97
2024-03-08T04:13:57.975Z,93473.50
2024-03-08T04:16:25.595Z,93478.94
2024-03-08T04:18:52.109Z,93472.72
2024-03-08T04:21:20.230Z,93471.13
2024-03-08T04:23:46.811Z,93472.94
2024-03-08T04:26:15.549Z,93462.28
2024-03-08T04:28:43.169Z,93458.19
2024-03-08T04:31:09.679Z,93456.47
2024-03-08T04:33:36.806Z,93460.28
2024-03-08T04:36:06.507Z,93443.50
2024-03-08T04:38:32.965Z,93454.97
2024-03-08T04:41:01.028Z,93457.16
2024-03-08T04:43:27.890Z,93451.72
2024-03-08T04:45:54.635Z,93453.25
2024-03-08T04:48:21.849Z,93118.69
2024-03-08T04:50:48.588Z,93448.88
2024-03-08T04:53:15.072Z,93455.72
2024-03-08T04:55:41.613Z,93431.97
2024-03-08T04:58:08.655Z,93455.53
2024-03-08T05:00:35.299Z,93444.66
2024-03-08T05:03:02.070Z,93451.97
2024-03-08T05:05:30.069Z,93456.25
2024-03-08T05:07:56.514Z,93439.91
2024-03-08T05:10:23.153Z,93426.72
2024-03-08T05:12:49.640Z,93446.38
2024-03-08T05:15:16.513Z,93437.50
2024-03-08T05:17:43.125Z,93434.72
2024-03-08T05:20:13.483Z,93437.56
2024-03-08T05:22:41.416Z,93412.66
2024-03-08T05:25:11.578Z,93434.06
2024-03-08T05:27:38.584Z,93432.41
2024-03-08T05:30:05.847Z,93404.81
2024-03-08T05:32:32.960Z,93427.16
2024-03-08T05:34:59.550Z,93419.53
2024-03-08T05:37:26.010Z,93413.44
2024-03-08T05:39:52.444Z,93414.34
2024-03-08T05:42:18.958Z,93421.34
2024-03-08T05:44:45.445Z,93411.06
2024-03-08T05:47:12.091Z,93409.97
2024-03-08T05:49:38.812Z,93412.03
2024-03-08T05:52:05.750Z,93405.50
2024-03-08T05:54:34.199Z,93370.38
2024-03-08T05:57:00.829Z,93409.50
2024-03-08T05:59:27.970Z,93400.13
2024-03-08T06:01:54.444Z,93401.91
2024-03-08T06:04:20.907Z,93400.34
2024-03-08T06:06:50.324Z,93386.59
2024-03-08T06:09:24.009Z,93404.34
2024-03-08T06:11:50.627Z,93399.66
2024-03-08T06:14:19.654Z,93375.97
2024-03-08T06:16:47.870Z,93399.34
2024-03-08T06:19:14.709Z,93387.06
2024-03-08T06:21:42.034Z,93400.91
2024-03-08T06:24:08.506Z,93395.19
2024-03-08T06:26:37.952Z,93393.78
2024-03-08T06:29:07.875Z,93394.22
2024-03-08T06:31:34.633Z,93399.25
2024-03-08T06:34:01.491Z,93395.41
2024-03-08T06:36:28.821Z,93404.63
2024-03-08T06:38:55.907Z,93400.88
2024-03-08T06:41:22.364Z,93396.81
2024-03-08T06:43:50.062Z,93396.28
2024-03-08T06:46:17.000Z,93396.97
2024-03-08T06:48:43.880Z,93394.13
2024-03-08T06:51:12.058Z,93402.34
2024-03-08T06:53:39.493Z,93390.28
2024-03-08T06:56:06.092Z,93397.59
2024-03-08T06:58:33.771Z,93378.97
2024-03-08T07:01:01.551Z,93382.19
2024-03-08T07:03:30.346Z,93390.09
2024-03-08T07:05:59.348Z,93373.59
2024-03-08T07:08:27.959Z,93383.94
2024-03-08T07:10:55.390Z,93374.53
2024-03-08T07:13:22.503Z,93364.97
2024-03-08T07:15:49.387Z,93358.25
2024-03-08T07:18:16.321Z,93365.00
2024-03-08T07:20:44.508Z,93370.53
2024-03-08T07:23:11.804Z,93342.03
2024-03-08T07:25:40.156Z,93359.28
2024-03-08T07:28:08.623Z,93339.53
2024-03-08T07:30:42.307Z,93358.88
2024-03-08T07:33:09.058Z,93352.88
2024-03-08T07:35:38.454Z,93345.44
2024-03-08T07:38:10.446Z,93354.78
2024-03-08T07:40:40.257Z,93339.38
2024-03-08T07:43:07.125Z,93353.06
2024-03-08T07:45:33.638Z,93345.06
2024-03-08T07:48:00.170Z,93347.00
2024-03-08T07:50:26.709Z,93340.66
2024-03-08T07:52:53.220Z,93350.72
2024-03-08T07:55:20.125Z,93331.66
2024-03-08T07:57:48.091Z,93338.47
2024-03-08T08:00:18.747Z,93344.38
2024-03-08T08:02:46.528Z,93332.88
2024-03-08T08:05:13.284Z,93343.06
2024-03-08T08:07:40.222Z,93330.13
2024-03-08T08:10:07.679Z,93339.91
2024-03-08T08:12:35.877Z,93333.72
2024-03-08T08:15:02.878Z,93320.09
2024-03-08T08:17:29.326Z,93319.41
2024-03-08T08:19:57.019Z,93331.41
2024-03-08T08:22:23.550Z,93328.88
2024-03-08T08:24:49.983Z,93328.25
2024-03-08T08:27:16.725Z,93316.56
2024-03-08T08:29:44.244Z,93322.22
2024-03-08T08:32:11.728Z,93292.47
2024-03-08T08:34:38.170Z,93211.63
2024-03-08T08:37:04.583Z,93312.91
2024-03-08T08:39:31.062Z,93310.53
2024-03-08T08:41:57.526Z,93313.00
2024-03-08T08:44:24.051Z,93283.25
2024-03-08T08:46:53.343Z,93282.47
2024-03-08T08:49:22.012Z,93306.78
2024-03-08T08:51:52.979Z,93298.22
2024-03-08T08:54:21.708Z,93302.63
2024-03-08T08:56:48.689Z,93298.09
2024-03-08T08:59:15.287Z,93299.13
2024-03-08T09:01:42.000Z,93296.66
2024-03-08T09:04:09.412Z,93271.59
2024-03-08T09:06:36.938Z,93278.53
2024-03-08T09:09:06.862Z,93270.03
2024-03-08T09:11:33.704Z,93259.56
2024-03-08T09:14:00.324Z,93255.59
2024-03-08T09:16:27.624Z,93276.91
2024-03-08T09:18:54.144Z,93272.47
2024-03-08T09:21:23.076Z,93273.19
2024-03-08T09:23:50.812Z,93237.03
2024-03-08T09:26:23.392Z,93269.59
2024-03-08T09:28:58.460Z,93268.88
2024-03-08T09:31:25.060Z,93268.88
2024-03-08T09:33:51.822Z,93234.44
2024-03-08T09:36:18.790Z,93270.97
2024-03-08T09:38:45.376Z,93174.34
2024-03-08T09:41:11.883Z,93268.06
2024-03-08T09:43:38.983Z,93260.56
2024-03-08T09:46:09.006Z,93254.09
2024-03-08T09:48:35.919Z,93254.03
2024-03-08T09:51:03.502Z,93240.81
2024-03-08T09:53:30.701Z,93249.75
2024-03-08T09:55:57.234Z,93245.91
2024-03-08T09:58:37.714Z,93233.53
2024-03-08T10:01:05.887Z,93241.28
2024-03-08T10:03:35.719Z,93244.72
2024-03-08T10:06:03.116Z,93249.47
2024-03-08T10:08:32.467Z,93239.22
2024-03-08T10:11:02.567Z,93243.09
2024-03-08T10:13:30.231Z,93244.09
2024-03-08T10:15:56.722Z,93244.81
2024-03-08T10:18:26.212Z,93214.50
2024-03-08T10:21:16.275Z,93233.81
2024-03-08T10:23:44.350Z,93226.50
2024-03-08T10:26:15.691Z,93219.56
2024-03-08T10:28:46.478Z,93227.47
2024-03-08T10:31:14.861Z,93226.41
2024-03-08T10:33:42.640Z,93205.53
2024-03-08T10:36:12.868Z,93215.97
2024-03-08T10:38:44.143Z,93212.97
2024-03-08T10:41:11.212Z,93205.44
2024-03-08T10:44:10.553Z,93177.44
2024-03-08T10:47:01.959Z,93203.63
2024-03-08T10:49:40.193Z,93193.50
2024-03-08T10:52:09.338Z,93184.00
2024-03-08T10:54:44.662Z,93182.97
2024-03-08T10:57:13.989Z,93181.78
2024-03-08T10:59:40.830Z,93181.19
2024-03-08T11:02:07.713Z,93183.38
2024-03-08T11:04:34.649Z,93160.06
2024-03-08T11:07:09.097Z,93185.16
2024-03-08T11:09:39.494Z,93176.59
2024-03-08T11:12:33.383Z,93175.06
2024-03-08T11:15:02.382Z,93170.00
2024-03-08T11:17:28.921Z,93164.00
2024-03-08T11:20:03.275Z,93158.69
2024-03-08T11:22:33.883Z,93160.44
2024-03-08T11:25:04.213Z,93152.97
2024-03-08T11:27:34.049Z,93146.56
2024-03-08T11:30:15.987Z,93150.59
2024-03-08T11:32:48.885Z,93154.59
2024-03-08T11:35:24.375Z,93118.56
2024-03-08T11:37:51.836Z,93116.72
2024-03-08T11:40:20.408Z,93138.00
2024-03-08T11:42:52.990Z,93138.47
2024-03-08T11:45:22.474Z,93130.31
2024-03-08T11:47:50.547Z,93092.44
2024-03-08T11:50:19.926Z,93122.72
2024-03-08T11:52:47.042Z,93117.28
2024-03-08T11:55:14.349Z,93119.31
2024-03-08T11:57:42.881Z,93111.75
2024-03-08T12:00:22.722Z,93108.84
2024-03-08T12:03:04.012Z,93101.25
2024-03-08T12:05:32.092Z,93098.13
2024-03-08T12:07:59.854Z,93092.06
2024-03-08T12:10:26.722Z,93084.03
2024-03-08T12:12:55.098Z,93079.16
2024-03-08T12:15:24.693Z,93074.16
2024-03-08T12:17:53.339Z,93061.09
2024-03-08T12:20:24.458Z,93045.03
2024-03-08T12:22:54.221Z,93064.59
2024-03-08T12:25:21.566Z,93059.31
2024-03-08T12:27:48.175Z,93063.59
2024-03-08T12:30:23.745Z,93058.44
2024-03-08T12:32:54.427Z,93050.50
2024-03-08T12:35:23.264Z,93055.50
2024-03-08T12:38:00.519Z,93057.97
2024-03-08T12:40:29.516Z,93045.06
2024-03-08T12:42:57.166Z,93050.28
2024-03-08T12:45:25.193Z,93035.59
2024-03-08T12:47:55.993Z,92987.75
2024-03-08T12:50:23.846Z,92995.09
2024-03-08T12:52:53.387Z,93005.22
2024-03-08T12:55:20.593Z,93002.53
2024-03-08T12:57:48.145Z,93010.50
2024-03-08T13:00:20.051Z,93006.09
2024-03-08T13:02:52.082Z,92996.28
2024-03-08T13:05:18.673Z,92997.75
2024-03-08T13:07:48.322Z,92981.38
2024-03-08T13:10:16.109Z,92969.25
2024-03-08T13:12:45.855Z,92987.78
2024-03-08T13:15:16.871Z,92961.63
2024-03-08T13:17:43.689Z,92970.31
2024-03-08T13:20:18.975Z,92962.75
2024-03-08T13:22:48.068Z,92924.66
2024-03-08T13:25:14.728Z,92960.16
2024-03-08T13:27:44.320Z,92946.91
2024-03-08T13:30:14.183Z,92875.00
2024-03-08T13:32:41.552Z,92963.38
2024-03-08T13:35:13.550Z,92955.22
2024-03-08T13:37:43.975Z,92947.09
2024-03-08T13:40:19.754Z,92960.28
2024-03-08T13:42:47.403Z,92960.31
2024-03-08T13:45:14.170Z,92917.84
2024-03-08T13:47:40.673Z,92949.59
2024-03-08T13:50:08.772Z,92934.47
2024-03-08T13:52:37.835Z,92913.66
2024-03-08T13:55:05.996Z,92839.78
2024-03-08T13:57:33.198Z,92892.16
2024-03-08T14:00:00.769Z,92916.63
2024-03-08T14:02:32.051Z,92887.47
2024-03-08T14:05:02.762Z,92907.06
2024-03-08T14:07:32.121Z,92892.41
2024-03-08T14:09:58.585Z,92881.53
2024-03-08T14:12:28.215Z,92907.09
2024-03-08T14:14:55.749Z,92912.91
2024-03-08T14:17:22.242Z,92895.16
2024-03-08T14:19:48.750Z,92877.44
2024-03-08T14:22:15.952Z,92900.25
2024-03-08T14:24:43.745Z,92889.81
2024-03-08T14:27:10.756Z,92876.13
2024-03-08T14:29:37.484Z,92864.28
2024-03-08T14:32:07.282Z,92847.25
2024-03-08T14:34:35.007Z,92837.63
2024-03-08T14:37:06.296Z,92855.41
2024-03-08T14:39:34.559Z,92851.63
2024-03-08T14:42:01.225Z,92845.47
2024-03-08T14:44:27.817Z,92801.81
2024-03-08T14:46:54.431Z,92818.63
2024-03-08T14:49:20.996Z,92837.91
2024-03-08T14:51:48.134Z,92842.84
2024-03-08T14:54:15.120Z,92841.03
2024-03-08T14:56:44.214Z,92841.31
2024-03-08T14:59:10.782Z,92832.59
2024-03-08T15:01:37.711Z,92836.06
2024-03-08T15:04:09.690Z,92815.66
2024-03-08T15:06:38.011Z,92821.00
2024-03-08T15:09:18.113Z,92799.13
2024-03-08T15:11:50.347Z,92804.44
2024-03-08T15:14:17.679Z,92801.09
2024-03-08T15:16:44.685Z,92816.41
2024-03-08T15:19:13.230Z,92796.69
2024-03-08T15:21:40.555Z,92795.63
2024-03-08T15:24:11.129Z,92771.03
2024-03-08T15:26:37.609Z,92792.47
2024-03-08T15:29:06.014Z,92765.22
2024-03-08T15:31:33.592Z,92768.44
2024-03-08T15:34:02.078Z,92758.75
2024-03-08T15:36:34.261Z,92753.41
2024-03-08T15:39:01.387Z,92733.03
2024-03-08T15:41:28.279Z,92723.53
2024-03-08T15:43:56.178Z,92712.91
2024-03-08T15:46:26.203Z,92718.47
2024-03-08T15:48:53.224Z,92729.00
2024-03-08T15:51:20.703Z,92711.13
2024-03-08T15:53:57.545Z,92724.97
2024-03-08T15:56:25.014Z,92712.72
2024-03-08T15:58:52.802Z,92727.47
2024-03-08T16:01:21.363Z,92729.34
2024-03-08T16:03:50.731Z,92725.41
2024-03-08T16:06:22.244Z,92728.31
2024-03-08T16:08:49.740Z,92632.16
2024-03-08T16:11:18.290Z,92735.16
2024-03-08T16:13:45.215Z,92701.56
2024-03-08T16:16:13.152Z,92732.50
2024-03-08T16:18:39.679Z,92725.63
2024-03-08T16:21:08.030Z,92739.44
2024-03-08T16:23:34.523Z,92731.72
2024-03-08T16:26:01.184Z,92730.09
2024-03-08T16:28:29.126Z,92730.41
2024-03-08T16:30:55.897Z,92731.59
2024-03-08T16:33:23.300Z,92641.59
2024-03-08T16:35:50.681Z,92739.00
2024-03-08T16:38:17.698Z,92726.28
2024-03-08T16:40:45.768Z,92735.00
2024-03-08T16:43:12.445Z,92731.75
2024-03-08T16:45:40.202Z,92730.72
2024-03-08T16:48:08.617Z,92728.66
2024-03-08T16:50:35.271Z,92723.75
2024-03-08T16:53:02.524Z,92721.66
2024-03-08T16:55:30.992Z,92730.09
2024-03-08T16:57:57.675Z,92743.38
2024-03-08T17:00:31.182Z,92752.31
2024-03-08T17:03:02.583Z,92744.00
2024-03-08T17:05:29.694Z,92763.38
2024-03-08T17:08:05.628Z,92772.47
2024-03-08T17:10:34.495Z,92772.63
2024-03-08T17:13:02.762Z,92755.03
2024-03-08T17:15:30.986Z,92765.16
2024-03-08T17:18:00.574Z,92760.66
2024-03-08T17:20:29.493Z,92639.44
2024-03-08T17:23:00.124Z,92783.13
2024-03-08T17:25:28.798Z,92758.50
2024-03-08T17:27:57.111Z,92784.47
2024-03-08T17:30:27.952Z,92788.53
2024-03-08T17:32:59.851Z,92782.66
2024-03-08T17:35:28.756Z,92788.31
2024-03-08T17:37:59.091Z,92797.72
2024-03-08T17:40:27.924Z,92799.94
2024-03-08T17:42:55.450Z,92798.44
2024-03-08T17:45:25.985Z,92802.31
2024-03-08T17:47:53.296Z,92811.63
2024-03-08T17:50:20.848Z,92816.59
2024-03-08T17:52:49.220Z,92818.22
2024-03-08T17:55:16.455Z,92825.09
2024-03-08T17:57:47.630Z,92823.91
2024-03-08T18:00:30.320Z,92826.84
2024-03-08T18:02:57.608Z,92811.97
2024-03-08T18:05:28.938Z,92747.09
2024-03-08T18:07:58.602Z,92844.00
2024-03-08T18:10:26.245Z,92846.91
2024-03-08T18:12:59.302Z,92831.63
2024-03-08T18:15:31.953Z,92850.50
2024-03-08T18:18:00.408Z,92837.09
2024-03-08T18:20:36.078Z,92844.44
2024-03-08T18:23:06.359Z,92868.41
2024-03-08T18:25:34.241Z,92844.59
2024-03-08T18:28:06.721Z,92862.47
2024-03-08T18:30:33.796Z,92864.97
2024-03-08T18:33:00.400Z,92875.44
2024-03-08T18:35:26.999Z,92882.28
2024-03-08T18:37:53.730Z,92879.13
2024-03-08T18:40:23.709Z,92869.38
2024-03-08T18:42:51.613Z,92879.97
2024-03-08T18:45:19.279Z,92881.50
2024-03-08T18:47:48.119Z,92886.69
2024-03-08T18:50:15.064Z,92887.09
2024-03-08T18:52:41.827Z,92853.03
2024-03-08T18:55:14.023Z,92877.22
2024-03-08T18:57:44.820Z,92872.19
2024-03-08T19:00:35.910Z,92875.13
2024-03-08T19:03:06.090Z,92787.66
2024-03-08T19:05:36.278Z,92869.69
2024-03-08T19:08:10.548Z,92874.06
2024-03-08T19:10:39.478Z,92871.09
2024-03-08T19:13:07.165Z,92876.38
2024-03-08T19:15:34.549Z,92882.28
2024-03-08T19:18:02.284Z,92885.25
2024-03-08T19:20:30.330Z,92886.94
2024-03-08T19:22:58.858Z,92889.66
2024-03-08T19:25:28.895Z,92896.66
2024-03-08T19:28:00.841Z,92890.72
2024-03-08T19:30:32.011Z,92896.47
2024-03-08T19:33:00.613Z,92882.19
2024-03-08T19:35:28.836Z,92885.28
2024-03-08T19:37:57.025Z,92901.47
2024-03-08T19:40:26.057Z,92909.19
2024-03-08T19:42:54.271Z,92903.56
2024-03-08T19:45:20.824Z,92878.00
2024-03-08T19:47:47.754Z,92908.66
2024-03-08T19:50:15.981Z,92905.50
2024-03-08T19:52:47.723Z,92889.81
2024-03-08T19:55:16.866Z,92906.41
2024-03-08T19:57:48.562Z,92908.91
2024-03-08T20:00:26.805Z,92904.50
2024-03-08T20:02:57.529Z,92908.50
2024-03-08T20:05:28.733Z,92901.16
2024-03-08T20:07:56.317Z,92904.81
2024-03-08T20:10:24.608Z,92913.41
2024-03-08T20:12:53.909Z,92891.84
2024-03-08T20:15:26.039Z,92912.91
2024-03-08T20:17:57.740Z,92915.97
2024-03-08T20:20:24.408Z,92921.53
2024-03-08T20:22:52.154Z,92927.22
2024-03-08T20:25:23.565Z,92855.47
2024-03-08T20:27:55.392Z,92934.19
2024-03-08T20:30:28.077Z,92933.91
2024-03-08T20:33:04.994Z,92934.03
2024-03-08T20:35:34.997Z,92917.31
2024-03-08T20:38:07.187Z,92903.97
2024-03-08T20:40:42.763Z,92889.31
2024-03-08T20:43:15.798Z,92926.63
2024-03-08T20:45:43.026Z,92917.66
2024-03-08T20:48:10.370Z,92936.50
2024-03-08T20:50:42.780Z,92917.03
2024-03-08T20:53:12.001Z,92939.84
2024-03-08T20:55:45.892Z,92887.47
2024-03-08T20:58:12.840Z,92942.66
2024-03-08T21:00:39.344Z,92937.59
2024-03-08T21:03:19.618Z,92943.75
2024-03-08T21:05:54.527Z,92942.00
2024-03-08T21:08:25.346Z,92940.06
2024-03-08T21:10:52.607Z,92910.34
2024-03-08T21:13:19.574Z,92943.91
2024-03-08T21:15:46.522Z,92931.91
2024-03-08T21:18:15.755Z,92938.50
2024-03-08T21:20:42.857Z,92948.25
2024-03-08T21:25:40.710Z,92945.66
2024-03-08T21:28:09.800Z,92924.91
2024-03-08T21:30:36.403Z,92949.84
2024-03-08T21:33:05.639Z,92955.53
2024-03-08T21:35:36.297Z,92948.28
2024-03-08T21:38:02.966Z,92939.59
2024-03-08T21:40:36.719Z,92921.06
2024-03-08T21:43:07.004Z,92943.38
2024-03-08T21:45:35.698Z,92952.50
2024-03-08T21:48:04.232Z,92941.34
2024-03-08T21:50:32.506Z,92956.88
2024-03-08T21:53:01.023Z,92960.16
2024-03-08T21:55:28.052Z,92937.72
2024-03-08T21:57:55.680Z,92963.16
2024-03-08T22:00:24.337Z,92972.41
2024-03-08T22:02:51.742Z,92961.78
2024-03-08T22:05:21.628Z,92941.25
2024-03-08T22:07:49.591Z,92967.53
2024-03-08T22:10:26.558Z,92957.66
2024-03-08T22:12:55.739Z,92928.56
2024-03-08T22:15:24.073Z,92960.03
2024-03-08T22:17:53.913Z,92961.59
2024-03-08T22:20:22.631Z,92938.31
2024-03-08T22:22:50.873Z,92966.38
2024-03-08T22:25:18.863Z,92964.13
2024-03-08T22:27:45.852Z,92966.31
2024-03-08T22:30:16.438Z,92960.50
2024-03-08T22:32:43.535Z,92951.47
2024-03-08T22:35:11.297Z,92943.66
2024-03-08T22:37:38.050Z,92941.47
2024-03-08T22:40:11.757Z,92927.66
2024-03-08T22:42:45.528Z,92911.78
2024-03-08T22:45:14.185Z,92883.47
2024-03-08T22:47:44.615Z,92892.97
2024-03-08T22:50:13.315Z,92898.13
2024-03-08T22:52:41.278Z,92879.50
2024-03-08T22:55:09.775Z,92862.50
2024-03-08T22:57:40.757Z,92867.38
2024-03-08T23:00:27.500Z,92877.22
2024-03-08T23:02:56.256Z,92883.19
2024-03-08T23:05:23.907Z,92869.44
2024-03-08T23:07:53.093Z,92858.72
2024-03-08T23:10:22.734Z,92865.41
2024-03-08T23:12:49.259Z,92877.38
2024-03-08T23:15:16.234Z,92876.97
2024-03-08T23:17:47.078Z,92863.56
2024-03-08T23:20:17.165Z,92861.53
2024-03-08T23:22:47.711Z,92871.28
2024-03-08T23:25:17.580Z,92883.66
2024-03-08T23:27:51.850Z,92876.66
2024-03-08T23:30:20.983Z,92835.84
2024-03-08T23:32:47.683Z,92847.31
2024-03-08T23:35:15.105Z,92843.03
2024-03-08T23:37:49.252Z,92865.38
2024-03-08T23:40:22.047Z,92856.34
2024-03-08T23:42:52.086Z,92854.53
2024-03-08T23:45:21.712Z,92851.88
2024-03-08T23:47:50.683Z,92845.75
2024-03-08T23:50:23.394Z,92846.38
2024-03-08T23:52:51.361Z,92848.22
2024-03-08T23:55:27.893Z,92843.03
2024-03-08T23:57:55.642Z,92812.31
